Kalaheo, Hawaii
Current Conditions -  °F | °C
As of 7:53 PM on Wednesday 22 Oct 2014 (Local Time) from PHLI Reporting Station
Few Clouds Few Clouds  
Wind Chill: 78°   Ceiling: Unl
Heat Index: 80°   Visibility: 10mi
Dew Point: 72°   Wind: 7mph
Humidity: 81%   Direction: 70°ENE
Pressure: 30.02"   Gusts: NA
Location:  21.91°N, 159.5°W
Report Text: PHLI 230553Z 07006KT 10SM FEW015 26/22 A3002 RMK AO2 SLP163 60021 T02560222 10289 20256 52015
Loading
Personal Weather Stations






























Interactive Weather Map
Tropical Storm Tracking
New forecast layout! Learn more

10-Day Weather Forecast

Advertisements
Track Severe Weather on mobile